createdAt,value
2022-11-30T00:00:37.862Z,92395.94
2022-11-30T00:05:39.799Z,92384.41
2022-11-30T00:10:42.519Z,92399.47
2022-11-30T00:15:44.452Z,92403.59
2022-11-30T00:20:46.385Z,92385.50
2022-11-30T00:25:48.329Z,92386.72
2022-11-30T00:31:00.682Z,92396.47
2022-11-30T00:36:05.491Z,92384.78
2022-11-30T00:41:08.056Z,92384.59
2022-11-30T00:46:10.417Z,92374.97
2022-11-30T00:51:12.893Z,92378.38
2022-11-30T00:56:15.005Z,92383.59
2022-11-30T01:01:16.986Z,92378.69
2022-11-30T01:06:18.999Z,92382.00
2022-11-30T01:11:24.379Z,92380.69
2022-11-30T01:16:31.840Z,92400.81
2022-11-30T01:21:33.813Z,92389.84
2022-11-30T01:26:36.036Z,92396.56
2022-11-30T01:31:38.002Z,92402.94
2022-11-30T01:36:39.962Z,92376.28
2022-11-30T01:41:42.444Z,92394.44
2022-11-30T01:47:03.052Z,92391.69
2022-11-30T01:52:15.174Z,92388.22
2022-11-30T01:57:24.544Z,92379.06
2022-11-30T02:02:42.797Z,92398.59
2022-11-30T02:07:45.206Z,92390.59
2022-11-30T02:13:22.196Z,92387.38
2022-11-30T02:18:38.140Z,92385.09
2022-11-30T02:23:51.120Z,92380.72
2022-11-30T02:28:53.003Z,92380.53
2022-11-30T02:33:57.479Z,92384.03
2022-11-30T02:38:59.612Z,92381.06
2022-11-30T02:44:01.584Z,92370.03
2022-11-30T02:49:16.527Z,92369.66
2022-11-30T02:54:19.118Z,92373.13
2022-11-30T02:59:22.410Z,92384.97
2022-11-30T03:04:24.332Z,92375.94
2022-11-30T03:09:26.251Z,92393.81
2022-11-30T03:14:28.164Z,92393.16
2022-11-30T03:19:30.083Z,92371.97
2022-11-30T03:24:32.005Z,92380.25
2022-11-30T03:29:34.113Z,92387.00
2022-11-30T03:34:35.995Z,92367.78
2022-11-30T03:39:37.945Z,92377.38
2022-11-30T03:44:39.943Z,92381.19
2022-11-30T03:49:41.815Z,92357.94
2022-11-30T03:54:43.935Z,92364.41
2022-11-30T03:59:46.094Z,92363.41
2022-11-30T04:04:48.150Z,92381.88
2022-11-30T04:09:50.289Z,92393.69
2022-11-30T04:14:52.241Z,92386.75
2022-11-30T04:19:54.118Z,92399.06
2022-11-30T04:24:56.031Z,92392.25
2022-11-30T04:29:57.963Z,92380.44
2022-11-30T04:35:00.114Z,92389.94
2022-11-30T04:40:02.263Z,92387.59
2022-11-30T04:45:04.590Z,92392.19
2022-11-30T04:50:08.411Z,92396.84
2022-11-30T04:55:10.317Z,92407.44
2022-11-30T05:00:14.124Z,92397.41
2022-11-30T05:05:16.344Z,92397.31
2022-11-30T05:10:18.409Z,92398.88
2022-11-30T05:15:20.627Z,92391.06
2022-11-30T05:20:22.578Z,92377.88
2022-11-30T05:25:24.578Z,92395.16
2022-11-30T05:30:26.570Z,92403.91
2022-11-30T05:35:28.574Z,92410.13
2022-11-30T05:40:32.665Z,92388.47
2022-11-30T05:45:34.758Z,92334.72
2022-11-30T05:50:36.714Z,92403.13
2022-11-30T05:55:38.662Z,92404.56
2022-11-30T06:00:40.785Z,92407.84
2022-11-30T06:05:42.797Z,92400.50
2022-11-30T06:10:45.106Z,92400.63
2022-11-30T06:15:47.081Z,92397.72
2022-11-30T06:20:49.086Z,92402.59
2022-11-30T06:25:52.658Z,92393.56
2022-11-30T06:30:59.446Z,92404.34
2022-11-30T06:36:01.556Z,92407.28
2022-11-30T06:41:09.950Z,92393.97
2022-11-30T06:46:12.237Z,92395.75
2022-11-30T06:51:14.226Z,92407.69
2022-11-30T06:56:16.242Z,92367.47
2022-11-30T07:01:18.424Z,92405.31
2022-11-30T07:06:20.416Z,92389.50
2022-11-30T07:11:22.501Z,92388.16
2022-11-30T07:16:24.882Z,92395.91
2022-11-30T07:21:26.860Z,92413.72
2022-11-30T07:26:28.894Z,92416.94
2022-11-30T07:31:36.330Z,92415.56
2022-11-30T07:36:38.287Z,92427.72
2022-11-30T07:41:41.499Z,92401.47
2022-11-30T07:46:44.782Z,92418.00
2022-11-30T07:51:46.788Z,92433.41
2022-11-30T07:56:48.735Z,92405.34
2022-11-30T08:01:50.877Z,92417.22
2022-11-30T08:06:54.880Z,92426.72
2022-11-30T08:11:56.840Z,92430.81
2022-11-30T08:16:58.930Z,92433.03
2022-11-30T08:22:00.921Z,92432.78
2022-11-30T08:27:02.813Z,92421.88
2022-11-30T08:32:04.971Z,92436.19
2022-11-30T08:37:07.132Z,92428.03
2022-11-30T08:42:09.054Z,92419.44
2022-11-30T08:47:11.094Z,92429.28
2022-11-30T08:52:17.887Z,92451.19
2022-11-30T08:57:21.412Z,92450.06
2022-11-30T09:02:23.546Z,92431.34
2022-11-30T09:07:25.572Z,92439.59
2022-11-30T09:12:27.471Z,92446.00
2022-11-30T09:17:29.391Z,92443.91
2022-11-30T09:22:31.382Z,92454.56
2022-11-30T09:27:33.852Z,92429.75
2022-11-30T09:32:35.839Z,92450.91
2022-11-30T09:37:38.910Z,92429.88
2022-11-30T09:42:48.724Z,92405.63
2022-11-30T09:48:21.695Z,92442.22
2022-11-30T09:53:40.328Z,92435.00
2022-11-30T09:58:58.377Z,92455.34
2022-11-30T10:04:01.772Z,92436.16
2022-11-30T10:09:27.104Z,92444.19
2022-11-30T10:15:00.084Z,92430.72
2022-11-30T10:20:34.286Z,92443.09
2022-11-30T10:25:54.691Z,92444.34
2022-11-30T10:30:57.143Z,92410.84
2022-11-30T10:36:06.112Z,92426.69
2022-11-30T10:41:19.865Z,92411.94
2022-11-30T10:46:28.251Z,92402.47
2022-11-30T10:51:33.663Z,92411.69
2022-11-30T10:56:35.589Z,92387.34
2022-11-30T11:01:39.829Z,92389.34
2022-11-30T11:06:55.327Z,92371.84
2022-11-30T11:12:16.157Z,92397.28
2022-11-30T11:17:17.997Z,92397.88
2022-11-30T11:22:25.434Z,92370.09
2022-11-30T11:27:30.792Z,92381.28
2022-11-30T11:32:32.728Z,92347.53
2022-11-30T11:37:38.373Z,92368.34
2022-11-30T11:42:48.548Z,92362.47
2022-11-30T11:48:06.102Z,92357.00
2022-11-30T11:53:24.521Z,92382.91
2022-11-30T11:58:55.170Z,92372.50
2022-11-30T12:04:05.652Z,92372.75
2022-11-30T12:09:22.394Z,92343.16
2022-11-30T12:14:26.082Z,92365.75
2022-11-30T12:19:40.148Z,92365.31
2022-11-30T12:25:06.061Z,92312.47
2022-11-30T12:30:20.268Z,92362.00
2022-11-30T12:36:00.190Z,92352.44
2022-11-30T12:41:19.256Z,92344.72
2022-11-30T12:46:41.446Z,92349.56
2022-11-30T12:52:01.176Z,92354.88
2022-11-30T12:57:11.427Z,92352.44
2022-11-30T13:02:31.549Z,92355.78
2022-11-30T13:07:45.323Z,92353.25
2022-11-30T13:12:51.644Z,92367.03
2022-11-30T13:17:55.505Z,92360.91
2022-11-30T13:23:16.206Z,92363.72
2022-11-30T13:28:18.155Z,92362.38
2022-11-30T13:33:55.331Z,92360.16
2022-11-30T13:39:12.385Z,92360.31
2022-11-30T13:44:33.102Z,92352.75
2022-11-30T13:49:36.795Z,92361.38
2022-11-30T13:54:50.493Z,92330.06
2022-11-30T13:59:55.320Z,92359.50
2022-11-30T14:05:17.470Z,92362.88
2022-11-30T14:10:39.993Z,92358.94
2022-11-30T14:15:45.217Z,92362.00
2022-11-30T14:21:11.999Z,92362.31
2022-11-30T14:26:16.816Z,92353.50
2022-11-30T14:31:25.067Z,92376.31
2022-11-30T14:36:35.319Z,92377.00
2022-11-30T14:41:41.295Z,92339.44
2022-11-30T14:46:43.295Z,92366.00
2022-11-30T14:51:49.482Z,92355.31
2022-11-30T14:56:58.925Z,92360.78
2022-11-30T15:02:04.231Z,92343.59
2022-11-30T15:07:13.522Z,92370.72
2022-11-30T15:12:22.443Z,92375.72
2022-11-30T15:17:24.649Z,92362.75
2022-11-30T15:22:34.236Z,92357.72
2022-11-30T15:27:36.183Z,92368.50
2022-11-30T15:32:38.137Z,92362.00
2022-11-30T15:37:43.864Z,92375.44
2022-11-30T15:42:49.243Z,92365.66
2022-11-30T15:47:52.464Z,92372.66
2022-11-30T15:53:24.399Z,92356.13
2022-11-30T15:59:00.828Z,92386.97
2022-11-30T16:04:05.268Z,92363.84
2022-11-30T16:09:20.825Z,92378.44
2022-11-30T16:14:22.938Z,92376.78
2022-11-30T16:19:24.969Z,92378.25
2022-11-30T16:24:27.294Z,92385.34
2022-11-30T16:29:29.201Z,92380.34
2022-11-30T16:34:31.130Z,92394.06
2022-11-30T16:39:33.120Z,92390.72
2022-11-30T16:44:35.024Z,92394.75
2022-11-30T16:49:36.901Z,92391.75
2022-11-30T16:54:38.812Z,92378.81
2022-11-30T16:59:40.805Z,92399.09
2022-11-30T17:04:42.858Z,92398.16
2022-11-30T17:09:44.848Z,92392.56
2022-11-30T17:14:47.262Z,92399.59
2022-11-30T17:19:49.615Z,92389.69
2022-11-30T17:24:51.619Z,92346.41
2022-11-30T17:29:53.595Z,92386.47
2022-11-30T17:34:55.564Z,92390.38
2022-11-30T17:39:58.463Z,92409.69
2022-11-30T17:45:00.418Z,92401.66
2022-11-30T17:50:02.693Z,92392.06
2022-11-30T17:55:05.012Z,92361.13
2022-11-30T18:00:07.901Z,92397.06
2022-11-30T18:05:09.935Z,92404.75
2022-11-30T18:10:12.872Z,92416.81
2022-11-30T18:15:14.903Z,92413.72
2022-11-30T18:20:17.136Z,92410.97
2022-11-30T18:25:19.124Z,92421.44
2022-11-30T18:30:21.642Z,92409.97
2022-11-30T18:35:23.922Z,92415.91
2022-11-30T18:40:26.130Z,92429.94
2022-11-30T18:45:28.258Z,92364.53
2022-11-30T18:50:31.061Z,92406.50
2022-11-30T18:55:33.244Z,92402.75
2022-11-30T19:00:35.723Z,92410.97
2022-11-30T19:05:39.794Z,92415.50
2022-11-30T19:10:42.501Z,92430.06
2022-11-30T19:15:44.987Z,92402.38
2022-11-30T19:20:52.128Z,92435.16
2022-11-30T19:26:00.440Z,92431.06
2022-11-30T19:31:17.659Z,92440.84
2022-11-30T19:36:23.595Z,92425.97
2022-11-30T19:41:26.148Z,92435.84
2022-11-30T19:46:28.690Z,92443.03
2022-11-30T19:51:31.446Z,92447.13
2022-11-30T19:56:37.327Z,92427.75
2022-11-30T20:01:39.454Z,92433.22
2022-11-30T20:06:41.616Z,92431.00
2022-11-30T20:11:43.601Z,92439.38
2022-11-30T20:16:45.551Z,92442.97
2022-11-30T20:21:48.386Z,92428.84
2022-11-30T20:26:50.302Z,92431.38
2022-11-30T20:31:52.214Z,92446.31
2022-11-30T20:36:54.130Z,92423.34
2022-11-30T20:41:56.036Z,92454.06
2022-11-30T20:46:58.067Z,92453.63
2022-11-30T20:51:59.969Z,92449.38
2022-11-30T20:57:01.895Z,92437.97
2022-11-30T21:02:04.107Z,92460.06
2022-11-30T21:07:06.102Z,92460.56
2022-11-30T21:12:08.077Z,92430.94
2022-11-30T21:17:09.999Z,92428.13
2022-11-30T21:22:12.308Z,92408.78
2022-11-30T21:27:14.198Z,92443.34
2022-11-30T21:32:16.122Z,92450.72
2022-11-30T21:37:18.303Z,92453.22
2022-11-30T21:42:20.248Z,92464.72
2022-11-30T21:47:22.189Z,92458.28
2022-11-30T21:52:24.068Z,92448.00
2022-11-30T21:57:25.964Z,92432.84
2022-11-30T22:02:27.957Z,92431.63
2022-11-30T22:07:32.750Z,92462.88
2022-11-30T22:12:34.756Z,92477.47
2022-11-30T22:17:36.652Z,92474.34
2022-11-30T22:22:38.707Z,92475.31
2022-11-30T22:27:40.631Z,92435.88
2022-11-30T22:32:43.690Z,92476.09
2022-11-30T22:37:45.698Z,92480.16
2022-11-30T22:42:47.598Z,92458.78
2022-11-30T22:47:49.568Z,92445.13
2022-11-30T22:53:06.177Z,92458.03
2022-11-30T22:58:08.091Z,92457.97
2022-11-30T23:03:10.113Z,92463.38
2022-11-30T23:08:12.151Z,92461.78
2022-11-30T23:13:14.199Z,92463.06
2022-11-30T23:18:17.772Z,92449.34
2022-11-30T23:23:19.795Z,92477.69
2022-11-30T23:28:21.846Z,92449.56
2022-11-30T23:33:24.018Z,92444.63
2022-11-30T23:38:25.937Z,92469.69
2022-11-30T23:43:27.869Z,92466.38
2022-11-30T23:48:29.765Z,92460.41
2022-11-30T23:53:32.033Z,92447.88
2022-11-30T23:58:34.623Z,92435.31
